createdAt,value
2023-04-15T00:01:43.379Z,94188.25
2023-04-15T00:04:46.201Z,94190.16
2023-04-15T00:07:48.310Z,94198.13
2023-04-15T00:10:50.416Z,94183.66
2023-04-15T00:13:52.132Z,94183.25
2023-04-15T00:16:56.882Z,94183.31
2023-04-15T00:19:58.733Z,94178.69
2023-04-15T00:23:00.949Z,94196.25
2023-04-15T00:26:03.955Z,94188.63
2023-04-15T00:29:06.241Z,94184.03
2023-04-15T00:32:10.212Z,94188.28
2023-04-15T00:35:12.563Z,94200.53
2023-04-15T00:38:16.252Z,94201.69
2023-04-15T00:41:18.886Z,94189.13
2023-04-15T00:44:20.623Z,94187.13
2023-04-15T00:47:25.099Z,94186.34
2023-04-15T00:50:27.226Z,94178.72
2023-04-15T00:53:29.162Z,94169.53
2023-04-15T00:56:32.167Z,94169.97
2023-04-15T00:59:34.542Z,94171.44
2023-04-15T01:02:40.585Z,94188.25
2023-04-15T01:05:42.610Z,94182.09
2023-04-15T01:08:45.622Z,94167.97
2023-04-15T01:11:47.819Z,94177.16
2023-04-15T01:14:49.905Z,94177.13
2023-04-15T01:17:53.363Z,94177.09
2023-04-15T01:20:56.499Z,94165.66
2023-04-15T01:24:01.599Z,94168.72
2023-04-15T01:27:04.782Z,94175.59
2023-04-15T01:30:08.841Z,94177.53
2023-04-15T01:33:12.902Z,94175.63
2023-04-15T01:36:16.489Z,94160.75
2023-04-15T01:39:18.259Z,94171.84
2023-04-15T01:42:22.658Z,94157.69
2023-04-15T01:45:24.640Z,94176.41
2023-04-15T01:48:27.552Z,94160.38
2023-04-15T01:51:29.319Z,94156.53
2023-04-15T01:54:34.618Z,94166.88
2023-04-15T01:57:38.211Z,94162.25
2023-04-15T02:00:40.109Z,94158.81
2023-04-15T02:03:42.373Z,94148.88
2023-04-15T02:06:44.851Z,94159.97
2023-04-15T02:09:47.321Z,94156.16
2023-04-15T02:12:52.806Z,94154.19
2023-04-15T02:15:55.431Z,94155.34
2023-04-15T02:18:57.227Z,94157.22
2023-04-15T02:22:01.403Z,94152.66
2023-04-15T02:25:05.667Z,94151.50
2023-04-15T02:28:18.293Z,94151.13
2023-04-15T02:31:20.566Z,94146.13
2023-04-15T02:34:22.464Z,94143.84
2023-04-15T02:37:24.977Z,94143.81
2023-04-15T02:40:27.256Z,94158.72
2023-04-15T02:43:33.123Z,94166.34
2023-04-15T02:46:34.862Z,94155.66
2023-04-15T02:49:38.409Z,94150.31
2023-04-15T02:52:40.222Z,94149.13
2023-04-15T02:55:42.422Z,94148.75
2023-04-15T02:58:47.240Z,94151.38
2023-04-15T03:01:49.041Z,94154.03
2023-04-15T03:04:51.082Z,94152.16
2023-04-15T03:07:53.055Z,94168.56
2023-04-15T03:10:55.243Z,94175.84
2023-04-15T03:13:59.044Z,94163.22
2023-04-15T03:17:01.473Z,94149.81
2023-04-15T03:20:04.434Z,94156.72
2023-04-15T03:23:08.072Z,94152.94
2023-04-15T03:26:18.758Z,94165.47
2023-04-15T03:29:21.973Z,94164.34
2023-04-15T03:32:23.909Z,94170.47
2023-04-15T03:35:28.093Z,94152.50
2023-04-15T03:38:29.897Z,94167.00
2023-04-15T03:41:33.076Z,94160.13
2023-04-15T03:44:36.311Z,94166.53
2023-04-15T03:47:39.700Z,94165.03
2023-04-15T03:50:41.491Z,94157.00
2023-04-15T03:53:43.596Z,94145.94
2023-04-15T03:56:45.440Z,94142.88
2023-04-15T03:59:50.628Z,94173.78
2023-04-15T04:02:52.554Z,94160.47
2023-04-15T04:05:54.791Z,94151.66
2023-04-15T04:08:56.556Z,94139.44
2023-04-15T04:11:59.828Z,94157.78
2023-04-15T04:15:03.361Z,94157.00
2023-04-15T04:18:06.148Z,94147.81
2023-04-15T04:21:08.158Z,94153.56
2023-04-15T04:24:10.212Z,94149.75
2023-04-15T04:27:14.544Z,94176.47
2023-04-15T04:30:18.102Z,94153.22
2023-04-15T04:33:21.237Z,94160.84
2023-04-15T04:36:23.344Z,94160.50
2023-04-15T04:39:27.099Z,94156.28
2023-04-15T04:42:28.941Z,94156.31
2023-04-15T04:45:33.491Z,94153.69
2023-04-15T04:48:35.378Z,94152.50
2023-04-15T04:51:39.375Z,94162.44
2023-04-15T04:54:43.497Z,94152.53
2023-04-15T04:57:48.386Z,94144.53
2023-04-15T05:00:51.774Z,94153.31
2023-04-15T05:03:56.276Z,94159.06
2023-04-15T05:06:58.448Z,94162.09
2023-04-15T05:10:00.257Z,94148.69
2023-04-15T05:13:02.080Z,94180.78
2023-04-15T05:16:08.555Z,94173.13
2023-04-15T05:19:10.468Z,94186.09
2023-04-15T05:22:12.509Z,94170.06
2023-04-15T05:25:15.338Z,94182.28
2023-04-15T05:28:17.250Z,94186.13
2023-04-15T05:31:20.823Z,94188.34
2023-04-15T05:34:22.904Z,94186.78
2023-04-15T05:37:24.816Z,94199.69
2023-04-15T05:40:26.647Z,94205.06
2023-04-15T05:43:28.716Z,94192.09
2023-04-15T05:46:33.114Z,94197.78
2023-04-15T05:49:34.925Z,94197.41
2023-04-15T05:52:37.012Z,94202.38
2023-04-15T05:55:39.040Z,94210.31
2023-04-15T05:58:40.952Z,94210.31
2023-04-15T06:01:44.191Z,94217.94
2023-04-15T06:04:48.362Z,94213.78
2023-04-15T06:07:53.169Z,94212.25
2023-04-15T06:10:55.096Z,94214.16
2023-04-15T06:13:56.903Z,94225.50
2023-04-15T06:17:01.213Z,94224.38
2023-04-15T06:20:03.300Z,94233.91
2023-04-15T06:23:05.379Z,94239.25
2023-04-15T06:26:09.317Z,94243.81
2023-04-15T06:29:12.104Z,94236.19
2023-04-15T06:32:17.820Z,94237.34
2023-04-15T06:35:20.268Z,94228.22
2023-04-15T06:38:22.307Z,94237.34
2023-04-15T06:41:24.863Z,94238.09
2023-04-15T06:44:31.545Z,94238.91
2023-04-15T06:47:38.427Z,94237.03
2023-04-15T06:50:40.440Z,94259.88
2023-04-15T06:53:42.237Z,94251.13
2023-04-15T06:56:44.081Z,94251.91
2023-04-15T06:59:45.955Z,94246.13
2023-04-15T07:02:49.187Z,94257.56
2023-04-15T07:05:53.554Z,94258.66
2023-04-15T07:08:56.317Z,94246.13
2023-04-15T07:11:59.030Z,94267.13
2023-04-15T07:15:01.285Z,94252.66
2023-04-15T07:18:05.398Z,94244.72
2023-04-15T07:21:07.602Z,94260.72
2023-04-15T07:24:10.737Z,94258.81
2023-04-15T07:27:12.501Z,94273.75
2023-04-15T07:30:14.270Z,94263.75
2023-04-15T07:33:19.544Z,94271.38
2023-04-15T07:36:22.388Z,94268.69
2023-04-15T07:39:24.365Z,94266.75
2023-04-15T07:42:29.465Z,94259.84
2023-04-15T07:45:32.106Z,94266.72
2023-04-15T07:48:36.356Z,94276.28
2023-04-15T07:51:39.456Z,94278.94
2023-04-15T07:54:41.423Z,94282.78
2023-04-15T07:57:43.528Z,94277.09
2023-04-15T08:00:45.879Z,94292.66
2023-04-15T08:03:49.336Z,94286.50
2023-04-15T08:06:51.752Z,94297.16
2023-04-15T08:09:54.034Z,94289.53
2023-04-15T08:12:55.808Z,94283.84
2023-04-15T08:16:14.393Z,94299.50
2023-04-15T08:19:17.557Z,94299.78
2023-04-15T08:22:20.560Z,94302.38
2023-04-15T08:25:23.033Z,94310.47
2023-04-15T08:28:26.134Z,94305.84
2023-04-15T08:31:30.172Z,94306.63
2023-04-15T08:34:33.533Z,94310.13
2023-04-15T08:37:37.639Z,94323.94
2023-04-15T08:40:42.603Z,94314.31
2023-04-15T08:43:51.942Z,94315.34
2023-04-15T08:46:56.269Z,94316.91
2023-04-15T08:50:01.582Z,94316.31
2023-04-15T08:53:03.770Z,94318.94
2023-04-15T08:56:09.540Z,94315.28
2023-04-15T08:59:12.044Z,94323.66
2023-04-15T09:02:13.979Z,94331.69
2023-04-15T09:05:17.146Z,94328.97
2023-04-15T09:08:21.579Z,94327.97
2023-04-15T09:11:23.654Z,94329.09
2023-04-15T09:14:25.716Z,94335.34
2023-04-15T09:17:27.960Z,94343.06
2023-04-15T09:20:38.639Z,94331.50
2023-04-15T09:23:55.784Z,94344.94
2023-04-15T09:26:59.300Z,94347.19
2023-04-15T09:30:01.154Z,94349.06
2023-04-15T09:33:04.748Z,94351.00
2023-04-15T09:36:09.101Z,94351.78
2023-04-15T09:39:11.061Z,94357.09
2023-04-15T09:42:12.924Z,94355.31
2023-04-15T09:45:15.136Z,94358.28
2023-04-15T09:48:19.800Z,94367.09
2023-04-15T09:51:35.611Z,94357.22
2023-04-15T09:54:38.952Z,94354.25
2023-04-15T09:57:40.966Z,94353.53
2023-04-15T10:00:42.933Z,94352.81
2023-04-15T10:03:46.385Z,94362.75
2023-04-15T10:06:50.261Z,94361.59
2023-04-15T10:09:56.217Z,94360.13
2023-04-15T10:12:58.438Z,94357.97
2023-04-15T10:16:05.369Z,94368.94
2023-04-15T10:19:09.741Z,94368.97
2023-04-15T10:22:15.501Z,94376.50
2023-04-15T10:25:18.590Z,94363.97
2023-04-15T10:28:21.155Z,94385.03
2023-04-15T10:31:23.831Z,94368.09
2023-04-15T10:34:26.123Z,94377.72
2023-04-15T10:37:36.192Z,94362.56
2023-04-15T10:40:39.607Z,94375.25
2023-04-15T10:43:48.775Z,94382.44
2023-04-15T10:46:52.376Z,94383.63
2023-04-15T10:49:58.652Z,94379.03
2023-04-15T10:53:03.555Z,94378.72
2023-04-15T10:56:06.272Z,94391.31
2023-04-15T10:59:08.098Z,94379.44
2023-04-15T11:02:14.364Z,94392.47
2023-04-15T11:05:17.354Z,94394.00
2023-04-15T11:08:41.331Z,94394.44
2023-04-15T11:12:05.736Z,94397.13
2023-04-15T11:15:29.434Z,94401.34
2023-04-15T11:18:33.178Z,94396.34
2023-04-15T11:21:36.115Z,94407.91
2023-04-15T11:24:48.347Z,94410.50
2023-04-15T11:27:50.689Z,94406.66
2023-04-15T11:30:54.337Z,94408.13
2023-04-15T11:33:57.394Z,94411.19
2023-04-15T11:37:03.705Z,94411.16
2023-04-15T11:40:10.266Z,94415.38
2023-04-15T11:43:14.375Z,94414.59
2023-04-15T11:46:16.778Z,94418.47
2023-04-15T11:49:29.942Z,94423.81
2023-04-15T11:52:31.992Z,94429.91
2023-04-15T11:55:46.009Z,94425.31
2023-04-15T11:58:50.787Z,94436.78
2023-04-15T12:01:52.875Z,94442.91
2023-04-15T12:05:04.495Z,94434.19
2023-04-15T12:08:06.889Z,94451.16
2023-04-15T12:11:10.087Z,94450.38
2023-04-15T12:14:16.628Z,94450.03
2023-04-15T12:17:18.962Z,94464.09
2023-04-15T12:20:25.256Z,94456.84
2023-04-15T12:23:27.117Z,94454.50
2023-04-15T12:26:32.630Z,94451.13
2023-04-15T12:29:36.114Z,94463.28
2023-04-15T12:32:40.454Z,94463.75
2023-04-15T12:35:44.203Z,94458.75
2023-04-15T12:38:46.187Z,94453.06
2023-04-15T12:41:49.413Z,94470.66
2023-04-15T12:44:51.429Z,94482.47
2023-04-15T12:47:53.489Z,94471.00
2023-04-15T12:50:58.267Z,94472.13
2023-04-15T12:54:00.167Z,94473.31
2023-04-15T12:57:08.135Z,94478.34
2023-04-15T13:00:11.970Z,94470.31
2023-04-15T13:03:14.134Z,94476.50
2023-04-15T13:06:18.740Z,94473.44
2023-04-15T13:09:20.496Z,94481.84
2023-04-15T13:12:23.688Z,94485.28
2023-04-15T13:15:25.459Z,94497.91
2023-04-15T13:18:27.441Z,94488.69
2023-04-15T13:21:29.571Z,94489.88
2023-04-15T13:24:31.432Z,94489.09
2023-04-15T13:27:40.891Z,94491.78
2023-04-15T13:30:42.648Z,94494.50
2023-04-15T13:33:44.707Z,94500.28
2023-04-15T13:36:47.126Z,94512.56
2023-04-15T13:39:51.150Z,94508.38
2023-04-15T13:42:54.584Z,94514.88
2023-04-15T13:45:56.605Z,94509.81
2023-04-15T13:48:58.918Z,94514.75
2023-04-15T13:52:00.970Z,94511.56
2023-04-15T13:55:18.575Z,94523.13
2023-04-15T13:58:23.289Z,94525.41
2023-04-15T14:01:25.099Z,94524.25
2023-04-15T14:04:27.178Z,94518.66
2023-04-15T14:07:32.309Z,94520.06
2023-04-15T14:10:35.280Z,94533.84
2023-04-15T14:13:38.646Z,94529.31
2023-04-15T14:16:40.559Z,94530.94
2023-04-15T14:19:42.701Z,94542.00
2023-04-15T14:22:44.701Z,94545.81
2023-04-15T14:25:48.348Z,94554.22
2023-04-15T14:28:52.122Z,94553.00
2023-04-15T14:32:04.063Z,94552.34
2023-04-15T14:35:14.399Z,94554.97
2023-04-15T14:38:17.070Z,94552.69
2023-04-15T14:41:19.424Z,94552.38
2023-04-15T14:44:22.980Z,94560.03
2023-04-15T14:47:25.823Z,94570.72
2023-04-15T14:50:28.819Z,94556.91
2023-04-15T14:53:30.854Z,94564.47
2023-04-15T14:56:34.375Z,94569.53
2023-04-15T14:59:40.883Z,94560.75
2023-04-15T15:02:42.916Z,94564.25
2023-04-15T15:05:49.866Z,94579.88
2023-04-15T15:08:51.923Z,94584.50
2023-04-15T15:11:54.029Z,94589.41
2023-04-15T15:15:02.989Z,94590.94
2023-04-15T15:18:07.691Z,94595.09
2023-04-15T15:21:09.701Z,94596.22
2023-04-15T15:24:14.488Z,94595.91
2023-04-15T15:27:16.774Z,94604.00
2023-04-15T15:30:20.389Z,94609.72
2023-04-15T15:33:22.428Z,94607.06
2023-04-15T15:36:25.282Z,94608.38
2023-04-15T15:39:28.109Z,94608.75
2023-04-15T15:42:32.193Z,94611.91
2023-04-15T15:45:40.912Z,94612.66
2023-04-15T15:48:42.956Z,94617.25
2023-04-15T15:51:45.545Z,94620.31
2023-04-15T15:54:48.732Z,94622.69
2023-04-15T15:57:50.585Z,94614.97
2023-04-15T16:00:54.227Z,94628.47
2023-04-15T16:03:56.491Z,94636.66
2023-04-15T16:06:58.705Z,94627.44
2023-04-15T16:10:01.323Z,94633.25
2023-04-15T16:13:03.170Z,94636.75
2023-04-15T16:16:07.574Z,94645.16
2023-04-15T16:19:09.471Z,94636.69
2023-04-15T16:22:12.042Z,94642.09
2023-04-15T16:25:14.201Z,94651.16
2023-04-15T16:28:26.266Z,94654.31
2023-04-15T16:31:31.295Z,94657.69
2023-04-15T16:34:33.544Z,94661.16
2023-04-15T16:37:36.171Z,94661.19
2023-04-15T16:40:38.418Z,94667.38
2023-04-15T16:43:40.859Z,94669.69
2023-04-15T16:46:44.608Z,94678.56
2023-04-15T16:49:47.010Z,94675.81
2023-04-15T16:52:48.956Z,94688.47
2023-04-15T16:55:51.357Z,94699.94
2023-04-15T16:58:53.221Z,94700.03
2023-04-15T17:01:58.667Z,94707.25
2023-04-15T17:05:02.539Z,94714.75
2023-04-15T17:08:04.556Z,94709.78
2023-04-15T17:11:07.313Z,94717.03
2023-04-15T17:14:09.939Z,94718.22
2023-04-15T17:17:14.348Z,94724.66
2023-04-15T17:20:16.714Z,94735.78
2023-04-15T17:23:20.208Z,94730.84
2023-04-15T17:26:25.211Z,94741.94
2023-04-15T17:29:27.400Z,94743.03
2023-04-15T17:32:32.034Z,94746.91
2023-04-15T17:35:35.940Z,94752.28
2023-04-15T17:38:38.261Z,94763.03
2023-04-15T17:41:40.156Z,94764.13
2023-04-15T17:44:42.955Z,94767.66
2023-04-15T17:47:49.537Z,94772.16
2023-04-15T17:50:52.104Z,94779.84
2023-04-15T17:53:54.883Z,94778.09
2023-04-15T17:57:00.066Z,94791.28
2023-04-15T18:00:02.745Z,94794.41
2023-04-15T18:03:07.075Z,94792.44
2023-04-15T18:06:11.710Z,94799.72
2023-04-15T18:09:14.941Z,94800.84
2023-04-15T18:12:16.748Z,94809.31
2023-04-15T18:15:19.550Z,94815.78
2023-04-15T18:18:27.569Z,94820.75
2023-04-15T18:21:29.996Z,94813.78
2023-04-15T18:24:34.946Z,94822.69
2023-04-15T18:27:37.240Z,94823.41
2023-04-15T18:30:40.630Z,94839.47
2023-04-15T18:33:44.900Z,94842.41
2023-04-15T18:36:47.722Z,94841.28
2023-04-15T18:39:50.124Z,94842.75
2023-04-15T18:42:52.804Z,94844.28
2023-04-15T18:45:58.729Z,94850.53
2023-04-15T18:49:05.435Z,94855.81
2023-04-15T18:52:10.248Z,94863.13
2023-04-15T18:55:12.448Z,94871.44
2023-04-15T18:58:14.893Z,94870.41
2023-04-15T19:01:17.449Z,94866.47
2023-04-15T19:04:25.774Z,94881.59
2023-04-15T19:07:28.390Z,94878.84
2023-04-15T19:10:30.737Z,94887.59
2023-04-15T19:13:34.894Z,94888.06
2023-04-15T19:16:37.135Z,94897.19
2023-04-15T19:19:45.558Z,94905.69
2023-04-15T19:22:48.537Z,94906.69
2023-04-15T19:25:52.964Z,94909.78
2023-04-15T19:28:55.916Z,94918.50
2023-04-15T19:31:58.203Z,94918.09
2023-04-15T19:35:02.101Z,94919.75
2023-04-15T19:38:06.804Z,94927.38
2023-04-15T19:41:11.089Z,94931.88
2023-04-15T19:44:15.363Z,94931.84
2023-04-15T19:47:18.293Z,94935.34
2023-04-15T19:50:23.475Z,94940.19
2023-04-15T19:53:30.789Z,94936.09
2023-04-15T19:56:34.486Z,94938.53
2023-04-15T19:59:37.585Z,94939.94
2023-04-15T20:02:42.196Z,94935.00
2023-04-15T20:05:49.641Z,94941.91
2023-04-15T20:08:53.967Z,94941.31
2023-04-15T20:12:44.862Z,94940.41
2023-04-15T20:15:25.703Z,94943.94
2023-04-15T20:18:28.781Z,94955.34
2023-04-15T20:21:32.500Z,94962.38
2023-04-15T20:24:36.250Z,94956.91
2023-04-15T20:27:38.849Z,94969.22
2023-04-15T20:30:42.170Z,94967.56
2023-04-15T20:33:44.046Z,94963.03
2023-04-15T20:36:48.682Z,94974.56
2023-04-15T20:39:51.002Z,94972.38
2023-04-15T20:42:57.887Z,94988.38
2023-04-15T20:46:07.034Z,94981.16
2023-04-15T20:49:19.771Z,94985.88
2023-04-15T20:52:25.255Z,94995.03
2023-04-15T20:55:30.568Z,94990.81
2023-04-15T20:58:33.915Z,94989.66
2023-04-15T21:01:37.510Z,94994.16
2023-04-15T21:04:40.496Z,94998.78
2023-04-15T21:07:44.678Z,95002.00
2023-04-15T21:10:47.225Z,95003.38
2023-04-15T21:13:49.357Z,95000.50
2023-04-15T21:16:52.151Z,95005.94
2023-04-15T21:19:54.293Z,95010.88
2023-04-15T21:22:59.776Z,95009.69
2023-04-15T21:26:02.276Z,95010.13
2023-04-15T21:29:05.892Z,95017.00
2023-04-15T21:32:09.406Z,95023.19
2023-04-15T21:35:11.311Z,95018.84
2023-04-15T21:38:14.907Z,95023.84
2023-04-15T21:41:16.902Z,95025.66
2023-04-15T21:44:18.820Z,95025.75
2023-04-15T21:47:20.883Z,95033.38
2023-04-15T21:50:23.082Z,95031.13
2023-04-15T21:53:26.277Z,95033.91
2023-04-15T21:56:28.061Z,95033.00
2023-04-15T21:59:30.003Z,95037.09
2023-04-15T22:02:31.992Z,95048.00
2023-04-15T22:05:35.373Z,95045.97
2023-04-15T22:08:48.787Z,95056.34
2023-04-15T22:11:58.142Z,95048.78
2023-04-15T22:14:59.936Z,95055.66
2023-04-15T22:18:04.923Z,95055.53
2023-04-15T22:21:07.045Z,95059.00
2023-04-15T22:24:38.993Z,95062.44
2023-04-15T22:27:35.370Z,95065.06
2023-04-15T22:30:37.832Z,95066.63
2023-04-15T22:33:40.459Z,95088.66
2023-04-15T22:36:42.822Z,95082.38
2023-04-15T22:39:46.639Z,95083.22
2023-04-15T22:42:49.361Z,95074.81
2023-04-15T22:45:51.404Z,95083.34
2023-04-15T22:48:53.242Z,95087.88
2023-04-15T22:51:55.013Z,95087.78
2023-04-15T22:55:00.021Z,95089.22
2023-04-15T22:58:04.143Z,95093.16
2023-04-15T23:01:05.957Z,95093.50
2023-04-15T23:04:22.880Z,95092.38
2023-04-15T23:07:27.628Z,95105.78
2023-04-15T23:10:30.937Z,95106.91
2023-04-15T23:13:33.819Z,95108.09
2023-04-15T23:16:35.909Z,95108.88
2023-04-15T23:19:37.693Z,95121.91
2023-04-15T23:22:40.396Z,95111.06
2023-04-15T23:25:43.660Z,95123.03
2023-04-15T23:28:45.495Z,95129.63
2023-04-15T23:31:47.872Z,95126.78
2023-04-15T23:34:49.661Z,95130.38
2023-04-15T23:37:52.992Z,95126.78
2023-04-15T23:40:56.528Z,95128.00
2023-04-15T23:43:58.616Z,95141.72
2023-04-15T23:47:00.498Z,95124.53
2023-04-15T23:50:05.226Z,95127.91
2023-04-15T23:53:07.458Z,95127.84
2023-04-15T23:56:10.724Z,95137.44
2023-04-15T23:59:12.580Z,95135.13
